Accueil
METAR-TAF:

METAR-TAF

Aéroports :

Aéroport de Stuttgart

Stuttgart, Allemagne

latitude: 48-41N, longitude: 009-13E, altitude: 396 m

Observation

Le bulletin a été fait il y a 38 minutes, à 06:20 UTC
Vent 1 kt de direction variable
Température 7°C
Humidité 81%
Pression 1010 hPa
Visibilité 10 km ou plus
Quelques nuages à une hauteur de 100 ft

METAR: EDDS 280620Z VRB01KT 9999 FEW001 07/04 Q1010 NOSIG

Heure: 08:58 (06:58 UTC)

Prévision

Le bulletin a été fait il y a 1 heure et 58 minutes, à 05:00 UTC
Prévision valable du 28 à 06 UTC au 29 à 06 UTC
Vent 3 kt de direction variable
Visibilité 10 km ou plus
pas de nuages en-dessous de 1500 mètres et pas de cumulonimbus.
Temporairement
du 29 à 05 UTC au 29 à 06 UTC
Visibilité: 3000 m
Nuages fragmentés à une hauteur de 1400 ft
pluie, bruine

TAF: EDDS 280500Z 2806/2906 VRB03KT CAVOK TEMPO 2905/2906 3000 RADZ BKN014

Observations et prévisions météorologiques de plus de 4000 aéroports (messages METAR et TAF).

Les stations disponibles sont représentées par des disques jaunes et rouges sur la carte.

Passer la souris dessus pour voir le nom de la station.

Cliquer dessus pour voir les observations et prévisions météorologiques.

Pour changer de carte: cliquez sur les boutons verts avec une croix noire pour zoomer, sur le bouton vert avec un tiret pour effectuer un zoom arrière, ou sur les flèches vertes pour les cartes adjacentes.


METAR-TAF: